createdAt,value
2018-03-23T00:00:32.498Z,6.95
2018-03-23T00:01:32.487Z,6.84
2018-03-23T00:02:32.222Z,6.87
2018-03-23T00:03:32.469Z,6.87
2018-03-23T00:04:32.198Z,6.84
2018-03-23T00:05:32.438Z,6.94
2018-03-23T00:06:32.176Z,6.88
2018-03-23T00:07:32.430Z,6.94
2018-03-23T00:08:32.416Z,6.85
2018-03-23T00:09:32.403Z,6.85
2018-03-23T00:10:32.384Z,6.81
2018-03-23T00:11:32.138Z,7.02
2018-03-23T00:12:32.368Z,7.03
2018-03-23T00:13:32.098Z,6.98
2018-03-23T00:14:32.338Z,6.94
2018-03-23T00:15:32.080Z,6.89
2018-03-23T00:16:32.064Z,6.94
2018-03-23T00:17:31.799Z,6.94
2018-03-23T00:18:32.042Z,6.84
2018-03-23T00:19:32.030Z,6.95
2018-03-23T00:20:32.018Z,6.97
2018-03-23T00:21:32.007Z,6.94
2018-03-23T00:22:32.260Z,6.92
2018-03-23T00:23:31.991Z,6.88
2018-03-23T00:24:31.974Z,6.95
2018-03-23T00:25:32.218Z,6.97
2018-03-23T00:26:32.007Z,6.97
2018-03-23T00:27:31.694Z,6.95
2018-03-23T00:28:31.678Z,6.99
2018-03-23T00:29:32.181Z,6.98
2018-03-23T00:30:31.910Z,6.95
2018-03-23T00:31:31.914Z,6.99
2018-03-23T00:32:31.882Z,6.95
2018-03-23T00:33:31.872Z,6.92
2018-03-23T00:34:31.872Z,6.94
2018-03-23T00:35:31.854Z,6.94
2018-03-23T00:36:32.098Z,7.02
2018-03-23T00:37:31.829Z,6.94
2018-03-23T00:38:32.071Z,6.99
2018-03-23T00:39:32.059Z,6.97
2018-03-23T00:40:32.065Z,6.98
2018-03-23T00:41:31.792Z,6.95
2018-03-23T00:42:31.527Z,6.94
2018-03-23T00:43:32.022Z,6.99
2018-03-23T00:44:32.005Z,6.94
2018-03-23T00:45:31.743Z,6.98
2018-03-23T00:46:31.982Z,6.94
2018-03-23T00:47:31.972Z,6.95
2018-03-23T00:48:31.957Z,6.97
2018-03-23T00:49:31.948Z,6.99
2018-03-23T00:50:31.954Z,6.95
2018-03-23T00:51:31.420Z,6.92
2018-03-23T00:52:31.662Z,6.98
2018-03-23T00:53:31.906Z,6.98
2018-03-23T00:54:31.890Z,6.97
2018-03-23T00:55:31.881Z,7.02
2018-03-23T00:56:31.867Z,6.98
2018-03-23T00:57:31.606Z,7.06
2018-03-23T00:58:31.854Z,6.97
2018-03-23T00:59:31.714Z,7.07
2018-03-23T01:00:31.824Z,7.1
2018-03-23T01:01:31.814Z,7.12
2018-03-23T01:02:31.815Z,7.12
2018-03-23T01:03:31.796Z,7.07
2018-03-23T01:04:31.786Z,7.21
2018-03-23T01:05:31.774Z,7.17
2018-03-23T01:06:31.847Z,7.05
2018-03-23T01:07:31.757Z,7.09
2018-03-23T01:08:31.738Z,7.06
2018-03-23T01:09:31.474Z,7.2
2018-03-23T01:10:31.712Z,7.06
2018-03-23T01:11:31.704Z,7.2
2018-03-23T01:12:31.688Z,7.06
2018-03-23T01:13:31.431Z,7.15
2018-03-23T01:14:31.727Z,7.1
2018-03-23T01:15:31.659Z,7.1
2018-03-23T01:16:31.652Z,7.15
2018-03-23T01:17:31.645Z,7.02
2018-03-23T01:18:31.626Z,7.05
2018-03-23T01:19:31.358Z,7.06
2018-03-23T01:20:31.629Z,7.12
2018-03-23T01:21:31.588Z,7.23
2018-03-23T01:22:31.578Z,7.03
2018-03-23T01:23:31.315Z,7.1
2018-03-23T01:24:31.562Z,7.24
2018-03-23T01:25:31.552Z,7.07
2018-03-23T01:26:31.535Z,7.1
2018-03-23T01:27:31.267Z,7.17
2018-03-23T01:28:31.510Z,7.12
2018-03-23T01:29:31.500Z,7.16
2018-03-23T01:30:31.492Z,7.1
2018-03-23T01:31:31.478Z,7.1
2018-03-23T01:32:31.473Z,7.13
2018-03-23T01:33:31.467Z,7.15
2018-03-23T01:34:31.457Z,7.15
2018-03-23T01:35:31.436Z,7.07
2018-03-23T01:36:31.461Z,7.06
2018-03-23T01:37:31.417Z,7.07
2018-03-23T01:38:31.403Z,7.17
2018-03-23T01:39:31.402Z,7.13
2018-03-23T01:40:30.874Z,7.13
2018-03-23T01:41:31.379Z,7.16
2018-03-23T01:42:31.356Z,7.15
2018-03-23T01:43:31.094Z,7.15
2018-03-23T01:44:31.333Z,7.1
2018-03-23T01:45:31.322Z,7.12
2018-03-23T01:46:31.071Z,7.07
2018-03-23T01:47:31.307Z,7.03
2018-03-23T01:48:31.289Z,6.98
2018-03-23T01:49:31.025Z,6.91
2018-03-23T01:50:31.014Z,6.73
2018-03-23T01:51:31.255Z,6.67
2018-03-23T01:52:31.245Z,6.51
2018-03-23T01:53:31.233Z,6.49
2018-03-23T01:54:30.975Z,6.25
2018-03-23T01:55:30.957Z,6.11
2018-03-23T01:56:31.207Z,6.04
2018-03-23T01:57:31.195Z,5.91
2018-03-23T01:58:31.183Z,5.9
2018-03-23T01:59:30.912Z,5.74
2018-03-23T02:00:30.900Z,5.71
2018-03-23T02:01:30.889Z,5.64
2018-03-23T02:02:31.139Z,5.58
2018-03-23T02:03:31.132Z,5.58
2018-03-23T02:04:31.113Z,5.56
2018-03-23T02:05:30.844Z,5.49
2018-03-23T02:06:31.085Z,5.28
2018-03-23T02:07:31.072Z,5.22
2018-03-23T02:08:31.061Z,5.07
2018-03-23T02:09:30.797Z,4.97
2018-03-23T02:10:31.038Z,4.89
2018-03-23T02:11:31.036Z,4.77
2018-03-23T02:12:31.013Z,4.72
2018-03-23T02:13:31.002Z,4.69
2018-03-23T02:14:30.995Z,4.67
2018-03-23T02:15:30.986Z,4.65
2018-03-23T02:16:30.728Z,4.69
2018-03-23T02:17:30.952Z,4.62
2018-03-23T02:18:30.689Z,4.52
2018-03-23T02:19:30.676Z,4.54
2018-03-23T02:20:30.662Z,4.5
2018-03-23T02:21:30.957Z,4.48
2018-03-23T02:22:30.895Z,4.37
2018-03-23T02:23:30.880Z,4.37
2018-03-23T02:24:30.869Z,4.36
2018-03-23T02:25:30.853Z,4.44
2018-03-23T02:26:30.841Z,4.4
2018-03-23T02:27:30.581Z,4.32
2018-03-23T02:28:30.820Z,4.36
2018-03-23T02:29:30.801Z,4.32
2018-03-23T02:30:30.809Z,4.27
2018-03-23T02:31:30.783Z,4.24
2018-03-23T02:32:30.771Z,4.15
2018-03-23T02:33:30.777Z,4.15
2018-03-23T02:34:30.490Z,4.15
2018-03-23T02:35:30.742Z,4.16
2018-03-23T02:36:30.719Z,4.22
2018-03-23T02:37:30.711Z,4.18
2018-03-23T02:38:30.702Z,4.18
2018-03-23T02:39:30.169Z,4.2
2018-03-23T02:40:30.669Z,4.05
2018-03-23T02:41:30.654Z,4.09
2018-03-23T02:42:30.641Z,4.11
2018-03-23T02:43:30.627Z,4.09
2018-03-23T02:44:30.365Z,4
2018-03-23T02:45:30.351Z,4
2018-03-23T02:46:30.589Z,3.98
2018-03-23T02:47:30.585Z,3.94
2018-03-23T02:48:30.568Z,3.91
2018-03-23T02:49:30.298Z,3.96
2018-03-23T02:50:30.543Z,3.93
2018-03-23T02:51:30.532Z,3.94
2018-03-23T02:52:30.009Z,3.94
2018-03-23T02:53:30.498Z,3.91
2018-03-23T02:54:30.498Z,3.93
2018-03-23T02:55:30.493Z,3.94
2018-03-23T02:56:30.203Z,3.9
2018-03-23T02:57:30.194Z,3.91
2018-03-23T02:58:30.437Z,3.83
2018-03-23T02:59:30.177Z,3.78
2018-03-23T03:00:30.164Z,3.78
2018-03-23T03:01:29.884Z,3.78
2018-03-23T03:02:30.131Z,3.76
2018-03-23T03:03:30.375Z,3.78
2018-03-23T03:04:30.379Z,3.78
2018-03-23T03:05:30.087Z,3.73
2018-03-23T03:06:30.076Z,3.76
2018-03-23T03:07:30.325Z,3.72
2018-03-23T03:08:30.052Z,3.79
2018-03-23T03:09:30.300Z,3.72
2018-03-23T03:10:30.273Z,3.76
2018-03-23T03:11:30.009Z,3.79
2018-03-23T03:12:30.246Z,3.73
2018-03-23T03:13:30.242Z,3.78
2018-03-23T03:14:29.971Z,3.75
2018-03-23T03:15:29.957Z,3.84
2018-03-23T03:16:29.938Z,3.88
2018-03-23T03:17:30.187Z,3.84
2018-03-23T03:18:30.167Z,3.91
2018-03-23T03:19:30.156Z,3.98
2018-03-23T03:20:30.168Z,3.96
2018-03-23T03:21:30.128Z,3.98
2018-03-23T03:22:30.114Z,3.91
2018-03-23T03:23:30.123Z,3.98
2018-03-23T03:24:30.093Z,3.98
2018-03-23T03:25:30.071Z,3.93
2018-03-23T03:26:30.064Z,3.93
2018-03-23T03:27:30.047Z,4
2018-03-23T03:28:30.034Z,4.05
2018-03-23T03:29:30.069Z,4.04
2018-03-23T03:30:30.025Z,4.08
2018-03-23T03:31:30.010Z,4.08
2018-03-23T03:32:29.988Z,4.04
2018-03-23T03:33:29.972Z,3.94
2018-03-23T03:34:29.706Z,3.88
2018-03-23T03:35:29.942Z,3.93
2018-03-23T03:36:29.929Z,3.98
2018-03-23T03:37:29.916Z,4.05
2018-03-23T03:38:29.910Z,4.02
2018-03-23T03:39:29.893Z,4.09
2018-03-23T03:40:29.878Z,4
2018-03-23T03:41:29.867Z,4.06
2018-03-23T03:42:29.851Z,4.05
2018-03-23T03:43:29.841Z,4.09
2018-03-23T03:44:29.572Z,4.05
2018-03-23T03:45:29.814Z,3.98
2018-03-23T03:46:29.798Z,4.11
2018-03-23T03:47:29.834Z,4
2018-03-23T03:48:29.785Z,4.04
2018-03-23T03:49:29.761Z,4.04
2018-03-23T03:50:29.746Z,3.97
2018-03-23T03:51:29.733Z,4.12
2018-03-23T03:52:29.720Z,4.04
2018-03-23T03:53:29.712Z,4
2018-03-23T03:54:29.455Z,4.09
2018-03-23T03:55:29.684Z,4.08
2018-03-23T03:56:29.669Z,4.08
2018-03-23T03:57:29.709Z,4.16
2018-03-23T03:58:29.395Z,4.27
2018-03-23T03:59:29.131Z,4.27
2018-03-23T04:00:29.632Z,4.27
2018-03-23T04:01:29.349Z,4.2
2018-03-23T04:02:29.590Z,4.27
2018-03-23T04:03:29.578Z,4.32
2018-03-23T04:04:29.309Z,4.27
2018-03-23T04:05:29.549Z,4.26
2018-03-23T04:06:29.284Z,4.24
2018-03-23T04:07:29.527Z,4.18
2018-03-23T04:08:29.510Z,4.18
2018-03-23T04:09:29.501Z,4.11
2018-03-23T04:10:29.485Z,4.14
2018-03-23T04:11:29.479Z,4.09
2018-03-23T04:12:29.459Z,4.09
2018-03-23T04:13:29.446Z,4.06
2018-03-23T04:14:29.181Z,4.05
2018-03-23T04:15:29.420Z,4.08
2018-03-23T04:16:29.426Z,3.94
2018-03-23T04:17:29.397Z,3.94
2018-03-23T04:18:29.384Z,3.91
2018-03-23T04:19:29.114Z,3.97
2018-03-23T04:20:29.357Z,3.91
2018-03-23T04:21:29.344Z,3.91
2018-03-23T04:22:29.080Z,3.94
2018-03-23T04:23:29.317Z,4
2018-03-23T04:24:28.797Z,4.09
2018-03-23T04:25:29.292Z,4
2018-03-23T04:26:29.285Z,3.98
2018-03-23T04:27:29.269Z,4.11
2018-03-23T04:28:29.259Z,4.11
2018-03-23T04:29:28.733Z,4.08
2018-03-23T04:30:29.229Z,4.12
2018-03-23T04:31:29.219Z,4.06
2018-03-23T04:32:29.202Z,4.05
2018-03-23T04:33:28.682Z,3.97
2018-03-23T04:34:29.175Z,3.96
2018-03-23T04:35:29.169Z,3.93
2018-03-23T04:36:29.157Z,3.91
2018-03-23T04:37:29.139Z,3.96
2018-03-23T04:38:29.121Z,3.96
2018-03-23T04:39:28.860Z,3.96
2018-03-23T04:40:28.843Z,3.96
2018-03-23T04:41:29.086Z,3.94
2018-03-23T04:42:29.070Z,3.93
2018-03-23T04:43:28.806Z,3.97
2018-03-23T04:44:29.047Z,3.91
2018-03-23T04:45:29.032Z,3.91
2018-03-23T04:46:29.031Z,3.91
2018-03-23T04:47:28.751Z,3.91
2018-03-23T04:48:28.998Z,4.08
2018-03-23T04:49:28.471Z,3.98
2018-03-23T04:50:28.967Z,4.06
2018-03-23T04:51:28.446Z,4
2018-03-23T04:52:28.937Z,4.02
2018-03-23T04:53:28.674Z,4.06
2018-03-23T04:54:28.659Z,4.06
2018-03-23T04:55:28.901Z,4.15
2018-03-23T04:56:28.634Z,4.06
2018-03-23T04:57:28.873Z,4
2018-03-23T04:58:28.868Z,4.06
2018-03-23T04:59:28.594Z,4.11
2018-03-23T05:00:28.837Z,4.09
2018-03-23T05:01:28.820Z,4.22
2018-03-23T05:02:28.814Z,4.27
2018-03-23T05:03:28.796Z,4.23
2018-03-23T05:04:28.782Z,4.24
2018-03-23T05:05:28.769Z,4.32
2018-03-23T05:06:28.769Z,4.23
2018-03-23T05:07:28.743Z,4.32
2018-03-23T05:08:28.478Z,4.37
2018-03-23T05:09:28.725Z,4.34
2018-03-23T05:10:28.705Z,4.34
2018-03-23T05:11:28.693Z,4.4
2018-03-23T05:12:28.437Z,4.47
2018-03-23T05:13:28.672Z,4.41
2018-03-23T05:14:28.405Z,4.37
2018-03-23T05:15:28.644Z,4.47
2018-03-23T05:16:28.628Z,4.5
2018-03-23T05:17:28.655Z,4.52
2018-03-23T05:18:28.608Z,4.55
2018-03-23T05:19:28.695Z,4.47
2018-03-23T05:20:28.589Z,4.52
2018-03-23T05:21:28.310Z,4.54
2018-03-23T05:22:28.551Z,4.5
2018-03-23T05:23:28.537Z,4.47
2018-03-23T05:24:28.020Z,4.5
2018-03-23T05:25:28.530Z,4.52
2018-03-23T05:26:28.500Z,4.54
2018-03-23T05:27:28.488Z,4.58
2018-03-23T05:28:28.224Z,4.67
2018-03-23T05:29:28.207Z,4.7
2018-03-23T05:30:28.448Z,4.84
2018-03-23T05:31:28.442Z,4.67
2018-03-23T05:32:28.169Z,4.7
2018-03-23T05:33:28.413Z,4.72
2018-03-23T05:34:28.401Z,4.67
2018-03-23T05:35:28.133Z,4.65
2018-03-23T05:36:28.375Z,4.69
2018-03-23T05:37:28.410Z,4.78
2018-03-23T05:38:28.355Z,4.85
2018-03-23T05:39:28.421Z,4.88
2018-03-23T05:40:28.068Z,4.86
2018-03-23T05:41:28.311Z,4.89
2018-03-23T05:42:28.304Z,4.88
2018-03-23T05:43:28.032Z,4.78
2018-03-23T05:44:28.022Z,4.82
2018-03-23T05:45:28.258Z,4.73
2018-03-23T05:46:28.063Z,4.91
2018-03-23T05:47:27.979Z,4.92
2018-03-23T05:48:28.221Z,4.91
2018-03-23T05:49:28.207Z,4.96
2018-03-23T05:50:28.203Z,4.96
2018-03-23T05:51:28.183Z,5
2018-03-23T05:52:27.923Z,4.99
2018-03-23T05:53:27.912Z,5.09
2018-03-23T05:54:27.640Z,5.09
2018-03-23T05:55:28.131Z,5.13
2018-03-23T05:56:28.121Z,5.21
2018-03-23T05:57:28.109Z,5.22
2018-03-23T05:58:28.098Z,5.28
2018-03-23T05:59:28.150Z,5.31
2018-03-23T06:00:28.080Z,5.31
2018-03-23T06:01:27.553Z,5.38
2018-03-23T06:02:28.058Z,5.48
2018-03-23T06:03:27.782Z,5.42
2018-03-23T06:04:28.022Z,5.49
2018-03-23T06:05:28.018Z,5.46
2018-03-23T06:06:28.042Z,5.57
2018-03-23T06:07:27.734Z,5.48
2018-03-23T06:08:27.996Z,5.63
2018-03-23T06:09:28.002Z,5.79
2018-03-23T06:10:27.706Z,5.76
2018-03-23T06:11:27.938Z,5.79
2018-03-23T06:12:27.927Z,5.82
2018-03-23T06:13:27.661Z,5.93
2018-03-23T06:14:27.980Z,5.94
2018-03-23T06:15:27.890Z,5.96
2018-03-23T06:16:27.629Z,5.94
2018-03-23T06:17:27.613Z,6.04
2018-03-23T06:18:27.856Z,6.04
2018-03-23T06:19:27.336Z,6.06
2018-03-23T06:20:27.577Z,6.04
2018-03-23T06:21:27.826Z,6.04
2018-03-23T06:22:27.555Z,5.97
2018-03-23T06:23:27.288Z,5.86
2018-03-23T06:24:27.790Z,5.91
2018-03-23T06:25:27.770Z,5.85
2018-03-23T06:26:27.264Z,5.91
2018-03-23T06:27:27.747Z,5.79
2018-03-23T06:28:27.742Z,5.91
2018-03-23T06:29:27.727Z,5.86
2018-03-23T06:30:27.718Z,5.86
2018-03-23T06:31:27.700Z,5.85
2018-03-23T06:32:27.691Z,5.76
2018-03-23T06:33:27.686Z,5.89
2018-03-23T06:34:27.687Z,5.76
2018-03-23T06:35:27.660Z,5.72
2018-03-23T06:36:27.642Z,5.71
2018-03-23T06:37:27.640Z,5.71
2018-03-23T06:38:27.367Z,5.65
2018-03-23T06:39:27.610Z,5.63
2018-03-23T06:40:27.364Z,5.75
2018-03-23T06:41:27.715Z,5.68
2018-03-23T06:42:27.577Z,5.81
2018-03-23T06:43:27.057Z,5.72
2018-03-23T06:44:27.299Z,5.75
2018-03-23T06:45:27.542Z,5.65
2018-03-23T06:46:27.527Z,5.64
2018-03-23T06:47:27.533Z,5.89
2018-03-23T06:48:27.558Z,5.85
2018-03-23T06:49:27.551Z,5.9
2018-03-23T06:50:27.228Z,5.93
2018-03-23T06:51:27.215Z,5.86
2018-03-23T06:52:27.212Z,5.83
2018-03-23T06:53:27.452Z,5.89
2018-03-23T06:54:27.202Z,5.85
2018-03-23T06:55:27.172Z,5.85
2018-03-23T06:56:27.411Z,5.86
2018-03-23T06:57:27.400Z,5.93
2018-03-23T06:58:27.390Z,5.79
2018-03-23T06:59:27.398Z,5.83
2018-03-23T07:00:27.365Z,5.9
2018-03-23T07:01:27.360Z,5.96
2018-03-23T07:02:27.341Z,5.97
2018-03-23T07:03:27.332Z,6.11
2018-03-23T07:04:27.322Z,6.04
2018-03-23T07:05:27.308Z,5.99
2018-03-23T07:06:27.053Z,5.99
2018-03-23T07:07:27.289Z,6
2018-03-23T07:08:27.302Z,6.03
2018-03-23T07:09:27.266Z,6.04
2018-03-23T07:10:27.255Z,5.96
2018-03-23T07:11:26.987Z,6.03
2018-03-23T07:12:27.242Z,6.17
2018-03-23T07:13:27.220Z,6.17
2018-03-23T07:14:26.699Z,6.28
2018-03-23T07:15:27.215Z,6.21
2018-03-23T07:16:27.228Z,6.31
2018-03-23T07:17:27.177Z,6.28
2018-03-23T07:18:27.166Z,6.33
2018-03-23T07:19:27.167Z,6.48
2018-03-23T07:20:27.153Z,6.52
2018-03-23T07:21:26.874Z,6.64
2018-03-23T07:22:27.126Z,6.71
2018-03-23T07:23:27.109Z,6.73
2018-03-23T07:24:27.143Z,6.79
2018-03-23T07:25:26.576Z,6.71
2018-03-23T07:26:26.839Z,6.69
2018-03-23T07:27:27.198Z,6.67
2018-03-23T07:28:26.825Z,6.66
2018-03-23T07:29:26.789Z,6.61
2018-03-23T07:30:26.779Z,6.62
2018-03-23T07:31:27.055Z,6.74
2018-03-23T07:32:26.774Z,6.61
2018-03-23T07:33:27.023Z,6.64
2018-03-23T07:34:26.993Z,6.66
2018-03-23T07:35:26.751Z,6.66
2018-03-23T07:36:26.711Z,6.7
2018-03-23T07:37:26.966Z,6.61
2018-03-23T07:38:26.962Z,6.58
2018-03-23T07:39:26.964Z,6.55
2018-03-23T07:40:26.938Z,6.55
2018-03-23T07:41:26.922Z,6.54
2018-03-23T07:42:27.115Z,6.44
2018-03-23T07:43:26.897Z,6.38
2018-03-23T07:44:26.902Z,6.46
2018-03-23T07:45:26.363Z,6.49
2018-03-23T07:46:26.898Z,6.55
2018-03-23T07:47:26.600Z,6.73
2018-03-23T07:48:26.851Z,6.87
2018-03-23T07:49:26.598Z,6.81
2018-03-23T07:50:26.831Z,7.09
2018-03-23T07:51:26.809Z,7.17
2018-03-23T07:52:26.813Z,7.32
2018-03-23T07:53:26.790Z,7.45
2018-03-23T07:54:26.777Z,7.48
2018-03-23T07:55:26.771Z,7.58
2018-03-23T07:56:26.764Z,7.72
2018-03-23T07:57:26.497Z,7.74
2018-03-23T07:58:26.478Z,7.8
2018-03-23T07:59:26.734Z,7.85
2018-03-23T08:00:26.731Z,7.89
2018-03-23T08:01:26.458Z,8.02
2018-03-23T08:02:26.215Z,8.04
2018-03-23T08:03:26.687Z,8.02
2018-03-23T08:04:26.687Z,7.98
2018-03-23T08:05:26.675Z,8.01
2018-03-23T08:06:26.679Z,8.18
2018-03-23T08:07:26.686Z,8.07
2018-03-23T08:08:26.632Z,8.12
2018-03-23T08:09:26.373Z,8.18
2018-03-23T08:10:26.655Z,8.02
2018-03-23T08:11:26.631Z,7.97
2018-03-23T08:12:26.605Z,7.85
2018-03-23T08:13:26.584Z,7.75
2018-03-23T08:14:26.600Z,7.52
2018-03-23T08:15:26.563Z,7.5
2018-03-23T08:16:26.573Z,7.57
2018-03-23T08:17:26.561Z,7.55
2018-03-23T08:18:26.568Z,7.52
2018-03-23T08:19:26.544Z,7.52
2018-03-23T08:20:26.553Z,7.52
2018-03-23T08:21:26.525Z,7.53
2018-03-23T08:22:26.256Z,7.32
2018-03-23T08:23:25.996Z,7.06
2018-03-23T08:24:26.488Z,6.87
2018-03-23T08:25:26.481Z,6.81
2018-03-23T08:26:26.205Z,6.69
2018-03-23T08:27:26.867Z,6.69
2018-03-23T08:28:26.447Z,6.64
2018-03-23T08:29:26.429Z,6.66
2018-03-23T08:30:26.468Z,6.74
2018-03-23T08:31:26.473Z,6.7
2018-03-23T08:32:26.145Z,6.76
2018-03-23T08:33:26.387Z,6.8
2018-03-23T08:34:26.124Z,6.81
2018-03-23T08:35:26.112Z,6.81
2018-03-23T08:36:26.407Z,6.62
2018-03-23T08:37:26.086Z,6.71
2018-03-23T08:38:26.335Z,6.67
2018-03-23T08:39:26.335Z,6.7
2018-03-23T08:40:26.326Z,6.66
2018-03-23T08:41:26.530Z,6.66
2018-03-23T08:42:26.297Z,6.69
2018-03-23T08:43:26.291Z,6.69
2018-03-23T08:44:26.074Z,6.7
2018-03-23T08:45:26.259Z,6.71
2018-03-23T08:46:26.247Z,6.67
2018-03-23T08:47:25.983Z,6.8
2018-03-23T08:48:26.234Z,6.85
2018-03-23T08:49:25.982Z,6.87
2018-03-23T08:50:25.990Z,7.03
2018-03-23T08:51:26.219Z,6.98
2018-03-23T08:52:26.191Z,6.98
2018-03-23T08:53:26.232Z,6.85
2018-03-23T08:54:26.176Z,6.89
2018-03-23T08:55:26.180Z,6.8
2018-03-23T08:56:26.161Z,6.74
2018-03-23T08:57:26.145Z,6.67
2018-03-23T08:58:25.868Z,6.62
2018-03-23T08:59:25.896Z,6.58
2018-03-23T09:00:26.106Z,6.69
2018-03-23T09:01:26.090Z,6.7
2018-03-23T09:02:26.085Z,6.76
2018-03-23T09:03:26.073Z,6.77
2018-03-23T09:04:25.829Z,6.85
2018-03-23T09:05:25.801Z,6.79
2018-03-23T09:06:26.086Z,6.7
2018-03-23T09:07:26.040Z,6.62
2018-03-23T09:08:26.021Z,6.59
2018-03-23T09:09:25.760Z,6.58
2018-03-23T09:10:26.047Z,6.64
2018-03-23T09:11:25.815Z,6.64
2018-03-23T09:12:25.999Z,6.71
2018-03-23T09:13:26.003Z,6.74
2018-03-23T09:14:25.718Z,6.77
2018-03-23T09:15:25.726Z,6.87
2018-03-23T09:16:25.965Z,7.03
2018-03-23T09:17:25.691Z,7.16
2018-03-23T09:18:25.962Z,7.17
2018-03-23T09:19:25.944Z,7.16
2018-03-23T09:20:25.644Z,7.09
2018-03-23T09:21:25.380Z,6.97
2018-03-23T09:22:25.883Z,6.95
2018-03-23T09:23:25.885Z,6.84
2018-03-23T09:24:25.859Z,6.85
2018-03-23T09:25:25.593Z,6.92
2018-03-23T09:26:25.839Z,7.05
2018-03-23T09:27:25.864Z,7.06
2018-03-23T09:28:25.854Z,7.23
2018-03-23T09:29:25.847Z,7.3
2018-03-23T09:30:25.547Z,7.31
2018-03-23T09:31:25.836Z,7.31
2018-03-23T09:32:25.801Z,7.39
2018-03-23T09:33:25.777Z,7.28
2018-03-23T09:34:25.786Z,7.4
2018-03-23T09:35:25.758Z,7.43
2018-03-23T09:36:25.777Z,7.48
2018-03-23T09:37:25.741Z,7.68
2018-03-23T09:38:25.480Z,7.82
2018-03-23T09:39:25.783Z,7.83
2018-03-23T09:40:25.770Z,7.85
2018-03-23T09:41:25.761Z,7.82
2018-03-23T09:42:25.771Z,7.85
2018-03-23T09:43:25.530Z,7.87
2018-03-23T09:44:25.537Z,7.86
2018-03-23T09:45:25.710Z,8.02
2018-03-23T09:46:25.682Z,7.9
2018-03-23T09:47:25.476Z,7.85
2018-03-23T09:48:25.671Z,7.79
2018-03-23T09:49:25.664Z,7.57
2018-03-23T09:50:25.825Z,7.34
2018-03-23T09:51:25.665Z,7.24
2018-03-23T09:52:25.610Z,7.17
2018-03-23T09:53:25.652Z,7.2
2018-03-23T09:54:25.589Z,7.13
2018-03-23T09:55:25.586Z,7.07
2018-03-23T09:56:25.588Z,7.23
2018-03-23T09:57:25.289Z,7.28
2018-03-23T09:58:25.545Z,7.46
2018-03-23T09:59:25.540Z,7.48
2018-03-23T10:00:25.544Z,7.49
2018-03-23T10:01:25.518Z,7.58
2018-03-23T10:02:25.499Z,7.57
2018-03-23T10:03:25.246Z,7.69
2018-03-23T10:04:25.494Z,7.6
2018-03-23T10:05:25.325Z,7.64
2018-03-23T10:06:25.206Z,7.53
2018-03-23T10:07:25.464Z,7.63
2018-03-23T10:08:25.509Z,7.68
2018-03-23T10:09:25.172Z,7.79
2018-03-23T10:10:25.154Z,7.89
2018-03-23T10:11:25.400Z,8.01
2018-03-23T10:12:25.386Z,8.02
2018-03-23T10:13:25.497Z,7.98
2018-03-23T10:14:25.393Z,8.07
2018-03-23T10:15:25.433Z,8.07
2018-03-23T10:16:25.352Z,8.08
2018-03-23T10:17:25.358Z,8.05
2018-03-23T10:18:24.834Z,8.04
2018-03-23T10:19:25.341Z,8.11
2018-03-23T10:20:25.327Z,8.28
2018-03-23T10:21:25.378Z,8.23
2018-03-23T10:22:25.315Z,8.23
2018-03-23T10:23:25.029Z,8.36
2018-03-23T10:24:25.368Z,8.4
2018-03-23T10:25:25.279Z,8.4
2018-03-23T10:26:25.277Z,8.47
2018-03-23T10:27:25.244Z,8.5
2018-03-23T10:28:25.307Z,8.66
2018-03-23T10:29:25.244Z,8.66
2018-03-23T10:30:24.969Z,8.81
2018-03-23T10:31:24.960Z,8.79
2018-03-23T10:32:25.204Z,8.84
2018-03-23T10:33:25.205Z,8.87
2018-03-23T10:34:25.226Z,8.91
2018-03-23T10:35:24.706Z,9.01
2018-03-23T10:36:24.918Z,9.02
2018-03-23T10:37:24.924Z,9.08
2018-03-23T10:38:24.902Z,9.11
2018-03-23T10:39:25.134Z,9.2
2018-03-23T10:40:25.125Z,9.24
2018-03-23T10:41:25.117Z,9.2
2018-03-23T10:42:24.858Z,9.21
2018-03-23T10:43:25.099Z,9.28
2018-03-23T10:44:25.098Z,9.33
2018-03-23T10:45:25.117Z,9.31
2018-03-23T10:46:24.830Z,9.46
2018-03-23T10:47:25.068Z,9.4
2018-03-23T10:48:24.806Z,9.31
2018-03-23T10:49:24.804Z,9.2
2018-03-23T10:50:25.057Z,9.05
2018-03-23T10:51:24.799Z,8.99
2018-03-23T10:52:25.032Z,8.98
2018-03-23T10:53:25.032Z,9.15
2018-03-23T10:54:24.505Z,9.15
2018-03-23T10:55:25.016Z,9.15
2018-03-23T10:56:25.055Z,9.24
2018-03-23T10:57:24.760Z,9.18
2018-03-23T10:58:24.842Z,9.28
2018-03-23T10:59:25.012Z,9.32
2018-03-23T11:00:24.992Z,9.29
2018-03-23T11:01:24.958Z,9.29
2018-03-23T11:02:24.953Z,9.31
2018-03-23T11:03:24.961Z,9.36
2018-03-23T11:04:24.939Z,9.32
2018-03-23T11:05:24.666Z,9.38
2018-03-23T11:06:24.656Z,9.35
2018-03-23T11:07:24.918Z,9.46
2018-03-23T11:08:24.896Z,9.4
2018-03-23T11:09:24.632Z,9.43
2018-03-23T11:10:24.885Z,9.47
2018-03-23T11:11:24.866Z,9.4
2018-03-23T11:12:24.620Z,9.29
2018-03-23T11:13:24.849Z,9.35
2018-03-23T11:14:24.591Z,9.32
2018-03-23T11:15:24.854Z,9.28
2018-03-23T11:16:24.324Z,9.36
2018-03-23T11:17:24.566Z,9.28
2018-03-23T11:18:24.565Z,9.42
2018-03-23T11:19:24.805Z,9.48
2018-03-23T11:20:24.542Z,9.47
2018-03-23T11:21:24.791Z,9.43
2018-03-23T11:22:24.789Z,9.36
2018-03-23T11:23:24.539Z,9.43
2018-03-23T11:24:24.573Z,9.31
2018-03-23T11:25:24.503Z,9.32
2018-03-23T11:26:24.765Z,9.26
2018-03-23T11:27:24.747Z,9.26
2018-03-23T11:28:24.728Z,9.35
2018-03-23T11:29:24.748Z,9.36
2018-03-23T11:30:24.729Z,9.38
2018-03-23T11:31:24.194Z,9.32
2018-03-23T11:32:24.433Z,9.21
2018-03-23T11:33:24.712Z,9.18
2018-03-23T11:34:24.422Z,9.2
2018-03-23T11:35:24.668Z,9.15
2018-03-23T11:36:24.655Z,9.15
2018-03-23T11:37:24.395Z,9.17
2018-03-23T11:38:24.914Z,9.05
2018-03-23T11:39:24.630Z,9.11
2018-03-23T11:40:24.621Z,8.99
2018-03-23T11:41:24.634Z,8.98
2018-03-23T11:42:24.657Z,8.89
2018-03-23T11:43:24.633Z,8.83
2018-03-23T11:44:24.659Z,8.74
2018-03-23T11:45:24.322Z,8.79
2018-03-23T11:46:24.563Z,8.71
2018-03-23T11:47:24.619Z,8.73
2018-03-23T11:48:24.612Z,8.71
2018-03-23T11:49:24.034Z,8.7
2018-03-23T11:50:24.787Z,8.73
2018-03-23T11:51:24.319Z,8.8
2018-03-23T11:52:24.519Z,8.77
2018-03-23T11:53:24.276Z,8.83
2018-03-23T11:54:24.495Z,8.77
2018-03-23T11:55:24.483Z,8.74
2018-03-23T11:56:24.533Z,8.79
2018-03-23T11:57:24.471Z,8.81
2018-03-23T11:58:24.453Z,8.87
2018-03-23T11:59:24.447Z,8.77
2018-03-23T12:00:24.234Z,8.81
2018-03-23T12:01:24.169Z,8.8
2018-03-23T12:02:24.182Z,8.91
2018-03-23T12:03:24.408Z,8.89
2018-03-23T12:04:24.155Z,8.84
2018-03-23T12:05:24.398Z,8.87
2018-03-23T12:06:24.390Z,8.96
2018-03-23T12:07:24.151Z,8.87
2018-03-23T12:08:24.384Z,8.89
2018-03-23T12:09:24.099Z,8.92
2018-03-23T12:10:24.350Z,8.76
2018-03-23T12:11:24.343Z,8.74
2018-03-23T12:12:24.324Z,8.8
2018-03-23T12:13:24.536Z,8.76
2018-03-23T12:14:24.663Z,8.74
2018-03-23T12:15:24.313Z,8.79
2018-03-23T12:16:24.538Z,8.76
2018-03-23T12:17:24.314Z,8.7
2018-03-23T12:18:24.271Z,8.71
2018-03-23T12:19:24.282Z,8.7
2018-03-23T12:20:24.256Z,8.81
2018-03-23T12:21:24.242Z,8.89
2018-03-23T12:22:23.727Z,8.99
2018-03-23T12:23:23.993Z,9.04
2018-03-23T12:24:23.990Z,9.17
2018-03-23T12:25:24.214Z,9.32
2018-03-23T12:26:23.957Z,9.5
2018-03-23T12:27:23.947Z,9.46
2018-03-23T12:28:23.938Z,9.66
2018-03-23T12:29:24.164Z,9.69
2018-03-23T12:30:24.159Z,9.89
2018-03-23T12:31:24.193Z,9.87
2018-03-23T12:32:24.159Z,9.96
2018-03-23T12:33:24.601Z,9.96
2018-03-23T12:34:24.137Z,9.9
2018-03-23T12:35:24.114Z,9.87
2018-03-23T12:36:24.110Z,9.78
2018-03-23T12:37:23.603Z,9.66
2018-03-23T12:38:24.091Z,9.71
2018-03-23T12:39:24.156Z,9.78
2018-03-23T12:40:24.069Z,9.86
2018-03-23T12:41:23.823Z,9.91
2018-03-23T12:42:24.072Z,9.99
2018-03-23T12:43:24.055Z,10.14
2018-03-23T12:44:24.046Z,10.09
2018-03-23T12:45:24.038Z,10.07
2018-03-23T12:46:24.026Z,10.12
2018-03-23T12:47:24.261Z,10.09
2018-03-23T12:48:24.041Z,10.12
2018-03-23T12:49:23.746Z,10.07
2018-03-23T12:50:23.757Z,10.23
2018-03-23T12:51:23.987Z,10.34
2018-03-23T12:52:23.930Z,10.36
2018-03-23T12:53:23.716Z,10.44
2018-03-23T12:54:23.709Z,10.41
2018-03-23T12:55:23.961Z,10.47
2018-03-23T12:56:24.043Z,10.55
2018-03-23T12:57:23.936Z,10.66
2018-03-23T12:58:23.677Z,10.64
2018-03-23T12:59:23.939Z,10.74
2018-03-23T13:00:23.917Z,10.79
2018-03-23T13:01:23.929Z,10.78
2018-03-23T13:02:23.898Z,10.74
2018-03-23T13:03:23.635Z,10.66
2018-03-23T13:04:23.955Z,10.63
2018-03-23T13:05:23.871Z,10.45
2018-03-23T13:06:23.869Z,10.47
2018-03-23T13:07:23.608Z,10.47
2018-03-23T13:08:23.856Z,10.47
2018-03-23T13:09:23.596Z,10.34
2018-03-23T13:10:23.833Z,10.33
2018-03-23T13:11:23.829Z,10.32
2018-03-23T13:12:23.833Z,10.26
2018-03-23T13:13:23.561Z,10.26
2018-03-23T13:14:23.802Z,10.18
2018-03-23T13:15:23.553Z,10.27
2018-03-23T13:16:23.784Z,10.05
2018-03-23T13:17:23.551Z,10.12
2018-03-23T13:18:23.784Z,9.97
2018-03-23T13:19:23.774Z,9.96
2018-03-23T13:20:23.764Z,9.91